createdAt,value
2018-05-02T00:00:12.854Z,70.00
2018-05-02T00:02:40.427Z,70.30
2018-05-02T00:05:08.333Z,71.30
2018-05-02T00:07:35.909Z,71.10
2018-05-02T00:10:03.528Z,71.50
2018-05-02T00:12:31.318Z,72.40
2018-05-02T00:14:59.086Z,72.60
2018-05-02T00:17:26.657Z,73.30
2018-05-02T00:19:54.216Z,72.80
2018-05-02T00:22:21.841Z,73.50
2018-05-02T00:24:49.638Z,71.60
2018-05-02T00:27:17.293Z,72.20
2018-05-02T00:29:44.845Z,73.80
2018-05-02T00:32:12.445Z,73.00
2018-05-02T00:34:40.001Z,73.20
2018-05-02T00:37:07.597Z,72.40
2018-05-02T00:39:35.170Z,71.70
2018-05-02T00:42:02.800Z,74.00
2018-05-02T00:44:31.233Z,73.80
2018-05-02T00:46:58.823Z,73.80
2018-05-02T00:49:27.030Z,73.60
2018-05-02T00:51:54.617Z,74.30
2018-05-02T00:54:22.189Z,74.00
2018-05-02T00:56:49.812Z,74.40
2018-05-02T00:59:17.365Z,74.20
2018-05-02T01:01:45.077Z,74.30
2018-05-02T01:04:12.917Z,72.60
2018-05-02T01:06:40.615Z,72.10
2018-05-02T01:09:08.233Z,72.10
2018-05-02T01:11:35.798Z,74.40
2018-05-02T01:14:03.407Z,72.20
2018-05-02T01:16:31.754Z,73.30
2018-05-02T01:18:59.585Z,73.20
2018-05-02T01:21:27.174Z,72.50
2018-05-02T01:23:54.787Z,73.70
2018-05-02T01:26:22.349Z,73.90
2018-05-02T01:28:50.041Z,74.10
2018-05-02T01:31:17.614Z,72.20
2018-05-02T01:33:45.228Z,73.60
2018-05-02T01:36:12.798Z,72.30
2018-05-02T01:38:40.380Z,71.90
2018-05-02T01:41:07.937Z,72.00
2018-05-02T01:43:35.537Z,74.70
2018-05-02T01:46:03.907Z,74.60
2018-05-02T01:48:31.469Z,74.60
2018-05-02T01:50:59.865Z,72.90
2018-05-02T01:53:28.212Z,73.80
2018-05-02T01:55:56.760Z,73.20
2018-05-02T01:58:24.371Z,73.20
2018-05-02T02:00:52.029Z,73.60
2018-05-02T02:03:19.790Z,73.50
2018-05-02T02:05:47.397Z,72.10
2018-05-02T02:08:15.093Z,72.20
2018-05-02T02:10:42.777Z,74.30
2018-05-02T02:13:11.104Z,73.60
2018-05-02T02:15:38.695Z,73.50
2018-05-02T02:18:06.273Z,75.20
2018-05-02T02:20:34.621Z,72.00
2018-05-02T02:23:02.347Z,72.00
2018-05-02T02:25:30.011Z,71.60
2018-05-02T02:27:57.632Z,74.10
2018-05-02T02:30:25.198Z,71.30
2018-05-02T02:32:53.570Z,69.80
2018-05-02T02:35:21.945Z,70.10
2018-05-02T02:37:50.285Z,69.80
2018-05-02T02:40:17.879Z,69.70
2018-05-02T02:42:45.538Z,70.80
2018-05-02T02:45:13.906Z,69.40
2018-05-02T02:47:41.468Z,68.50
2018-05-02T02:50:10.097Z,69.30
2018-05-02T02:52:37.708Z,69.20
2018-05-02T02:55:05.257Z,69.20
2018-05-02T02:57:34.333Z,69.60
2018-05-02T03:00:01.929Z,69.60
2018-05-02T03:02:30.254Z,68.70
2018-05-02T03:04:57.850Z,68.70
2018-05-02T03:07:25.410Z,69.20
2018-05-02T03:09:52.987Z,69.20
2018-05-02T03:12:21.381Z,69.30
2018-05-02T03:14:48.926Z,69.30
2018-05-02T03:17:17.347Z,71.50
2018-05-02T03:19:45.080Z,71.60
2018-05-02T03:22:12.690Z,69.20
2018-05-02T03:24:40.295Z,72.10
2018-05-02T03:27:07.892Z,71.70
2018-05-02T03:29:35.494Z,71.40
2018-05-02T03:32:03.826Z,69.30
2018-05-02T03:34:31.655Z,69.30
2018-05-02T03:36:59.333Z,70.20
2018-05-02T03:39:26.927Z,72.20
2018-05-02T03:41:54.486Z,71.70
2018-05-02T03:44:22.089Z,69.00
2018-05-02T03:46:49.645Z,69.00
2018-05-02T03:49:18.003Z,69.90
2018-05-02T03:51:46.362Z,69.20
2018-05-02T03:54:14.037Z,69.10
2018-05-02T03:56:41.756Z,68.00
2018-05-02T03:59:09.429Z,68.40
2018-05-02T04:01:48.797Z,67.40
2018-05-02T04:04:28.179Z,67.40
2018-05-02T04:09:53.742Z,67.80
2018-05-02T04:12:21.509Z,68.60
2018-05-02T04:14:49.155Z,67.60
2018-05-02T04:17:16.746Z,68.00
2018-05-02T04:19:44.303Z,67.10
2018-05-02T04:22:12.068Z,66.40
2018-05-02T04:24:39.622Z,66.90
2018-05-02T04:27:07.193Z,68.10
2018-05-02T04:29:35.619Z,65.80
2018-05-02T04:32:03.233Z,65.80
2018-05-02T04:34:31.614Z,68.80
2018-05-02T04:36:59.974Z,67.90
2018-05-02T04:39:27.570Z,67.90
2018-05-02T04:41:55.256Z,69.10
2018-05-02T04:44:23.859Z,67.60
2018-05-02T04:46:51.443Z,67.50
2018-05-02T04:49:19.053Z,66.70
2018-05-02T04:51:46.641Z,69.50
2018-05-02T04:54:15.265Z,69.30
2018-05-02T04:56:42.832Z,69.70
2018-05-02T04:59:10.427Z,68.10
2018-05-02T05:01:38.009Z,67.40
2018-05-02T05:04:05.618Z,67.00
2018-05-02T05:06:33.187Z,67.10
2018-05-02T05:09:00.756Z,68.80
2018-05-02T05:11:28.355Z,67.80
2018-05-02T05:13:56.725Z,66.80
2018-05-02T05:16:24.348Z,66.70
2018-05-02T05:18:51.990Z,67.00
2018-05-02T05:21:19.614Z,66.40
2018-05-02T05:23:47.299Z,65.30
2018-05-02T05:26:14.990Z,65.40
2018-05-02T05:28:43.241Z,65.70
2018-05-02T05:31:11.035Z,66.80
2018-05-02T05:33:38.622Z,67.90
2018-05-02T05:36:06.320Z,65.40
2018-05-02T05:38:33.901Z,68.00
2018-05-02T05:41:01.596Z,66.00
2018-05-02T05:43:29.261Z,65.10
2018-05-02T05:45:56.837Z,63.20
2018-05-02T05:48:24.418Z,64.00
2018-05-02T05:50:52.054Z,65.40
2018-05-02T05:53:20.414Z,64.30
2018-05-02T05:55:48.014Z,64.20
2018-05-02T05:58:15.621Z,65.00
2018-05-02T06:00:43.233Z,65.40
2018-05-02T06:03:10.868Z,65.80
2018-05-02T06:05:39.235Z,65.70
2018-05-02T06:08:06.803Z,65.60
2018-05-02T06:10:34.356Z,66.00
2018-05-02T06:13:02.096Z,65.40
2018-05-02T06:15:29.661Z,65.70
2018-05-02T06:17:57.299Z,64.80
2018-05-02T06:20:25.154Z,64.90
2018-05-02T06:22:52.755Z,63.60
2018-05-02T06:25:20.373Z,63.70
2018-05-02T06:27:48.090Z,64.50
2018-05-02T06:30:15.706Z,65.10
2018-05-02T06:32:43.365Z,64.20
2018-05-02T06:35:11.264Z,64.60
2018-05-02T06:37:39.668Z,67.20
2018-05-02T06:40:07.357Z,67.20
2018-05-02T06:42:35.099Z,65.20
2018-05-02T06:45:03.494Z,66.90
2018-05-02T06:47:31.159Z,66.10
2018-05-02T06:49:58.757Z,67.30
2018-05-02T06:52:26.645Z,66.00
2018-05-02T06:54:54.245Z,65.00
2018-05-02T06:57:21.870Z,66.20
2018-05-02T06:59:49.549Z,65.10
2018-05-02T07:02:17.118Z,65.20
2018-05-02T07:04:44.681Z,63.90
2018-05-02T07:07:12.615Z,65.80
2018-05-02T07:09:40.243Z,65.00
2018-05-02T07:12:07.805Z,64.40
2018-05-02T07:14:35.407Z,64.90
2018-05-02T07:17:03.130Z,61.80
2018-05-02T07:19:30.707Z,63.00
2018-05-02T07:21:59.128Z,63.00
2018-05-02T07:24:26.817Z,63.00
2018-05-02T07:26:54.406Z,63.50
2018-05-02T07:29:22.807Z,64.20
2018-05-02T07:42:57.970Z,63.90
2018-05-02T07:45:25.525Z,64.60
2018-05-02T07:47:53.152Z,64.10
2018-05-02T07:52:55.393Z,66.10
2018-05-02T07:55:23.734Z,65.00
2018-05-02T07:57:51.303Z,64.80
2018-05-02T08:00:18.924Z,63.80
2018-05-02T08:02:46.477Z,63.40
2018-05-02T08:05:14.080Z,63.70
2018-05-02T08:07:41.721Z,63.60
2018-05-02T08:10:09.249Z,62.30
2018-05-02T08:12:36.819Z,61.10
2018-05-02T08:15:04.397Z,62.30
2018-05-02T08:17:32.012Z,60.60
2018-05-02T08:20:00.386Z,59.80
2018-05-02T08:22:28.738Z,58.90
2018-05-02T08:24:56.308Z,58.90
2018-05-02T08:27:24.024Z,58.50
2018-05-02T08:29:51.637Z,57.10
2018-05-02T08:32:19.990Z,58.40
2018-05-02T08:34:47.764Z,58.20
2018-05-02T08:37:15.315Z,58.40
2018-05-02T08:39:43.029Z,76.60
2018-05-02T08:42:10.695Z,56.90
2018-05-02T08:44:38.361Z,66.10
2018-05-02T08:47:05.925Z,56.90
2018-05-02T08:49:33.518Z,69.30
2018-05-02T08:52:01.069Z,67.70
2018-05-02T08:54:28.689Z,55.90
2018-05-02T08:56:56.269Z,59.70
2018-05-02T09:23:36.428Z,54.90
2018-05-02T09:26:04.174Z,53.30
2018-05-02T09:28:31.741Z,52.80
2018-05-02T09:30:59.338Z,54.10
2018-05-02T09:33:26.955Z,52.80
2018-05-02T09:35:54.526Z,53.20
2018-05-02T09:38:22.085Z,53.90
2018-05-02T09:40:49.683Z,54.20
2018-05-02T09:43:17.388Z,52.70
2018-05-02T09:45:45.013Z,53.20
2018-05-02T09:48:13.427Z,53.70
2018-05-02T09:50:40.988Z,53.60
2018-05-02T09:53:08.568Z,53.50
2018-05-02T09:55:36.149Z,52.80
2018-05-02T09:58:03.749Z,54.50
2018-05-02T10:00:31.301Z,51.50
2018-05-02T10:02:58.896Z,51.90
2018-05-02T10:05:26.441Z,52.20
2018-05-02T10:07:54.057Z,53.10
2018-05-02T10:10:22.376Z,50.30
2018-05-02T10:12:50.104Z,50.10
2018-05-02T10:15:17.613Z,53.50
2018-05-02T10:17:45.364Z,52.40
2018-05-02T10:20:13.116Z,53.60
2018-05-02T10:22:40.777Z,53.40
2018-05-02T10:25:08.373Z,52.30
2018-05-02T10:27:36.205Z,52.80
2018-05-02T10:30:03.804Z,52.80
2018-05-02T10:32:31.365Z,53.80
2018-05-02T10:34:58.978Z,52.40
2018-05-02T10:37:26.535Z,54.50
2018-05-02T10:39:54.322Z,52.70
2018-05-02T10:42:21.904Z,52.00
2018-05-02T10:44:49.631Z,52.80
2018-05-02T10:47:17.281Z,53.60
2018-05-02T10:49:45.005Z,53.00
2018-05-02T10:52:12.549Z,54.20
2018-05-02T10:54:42.471Z,53.30
2018-05-02T10:57:10.281Z,54.10
2018-05-02T10:59:37.893Z,54.00
2018-05-02T11:02:05.449Z,54.10
2018-05-02T11:04:35.117Z,52.60
2018-05-02T11:07:03.086Z,52.70
2018-05-02T11:09:30.734Z,53.20
2018-05-02T11:11:58.335Z,52.70
2018-05-02T11:26:35.218Z,68.50
2018-05-02T11:29:03.582Z,70.90
2018-05-02T11:31:31.929Z,52.80
2018-05-02T11:33:59.525Z,50.60
2018-05-02T11:36:27.903Z,50.20
2018-05-02T11:38:56.271Z,50.50
2018-05-02T11:41:23.974Z,49.50
2018-05-02T11:43:51.582Z,65.60
2018-05-02T11:46:19.176Z,63.00
2018-05-02T11:48:47.513Z,48.80
2018-05-02T11:51:15.139Z,48.80
2018-05-02T11:53:42.743Z,47.70
2018-05-02T11:56:10.336Z,49.60
2018-05-02T11:58:37.962Z,48.80
2018-05-02T12:01:05.589Z,49.30
2018-05-02T12:03:33.260Z,48.00
2018-05-02T12:06:00.815Z,48.90
2018-05-02T12:08:28.385Z,53.80
2018-05-02T12:10:55.989Z,55.10
2018-05-02T12:13:23.565Z,55.50
2018-05-02T12:15:51.250Z,46.10
2018-05-02T12:18:18.817Z,49.50
2018-05-02T12:35:59.118Z,48.00
2018-05-02T12:38:26.713Z,48.00
2018-05-02T12:40:54.529Z,48.80
2018-05-02T12:43:22.209Z,48.40
2018-05-02T12:45:49.828Z,48.90
2018-05-02T13:00:06.832Z,48.00
2018-05-02T13:02:34.515Z,47.30
2018-05-02T13:05:02.130Z,48.50
2018-05-02T13:07:29.837Z,48.80
2018-05-02T13:09:57.397Z,48.90
2018-05-02T13:12:24.976Z,49.10
2018-05-02T13:14:52.601Z,48.90
2018-05-02T13:17:20.194Z,49.80
2018-05-02T13:19:47.765Z,48.40
2018-05-02T13:22:15.336Z,48.20
2018-05-02T13:24:43.833Z,48.80
2018-05-02T13:27:11.505Z,48.80
2018-05-02T13:29:39.068Z,48.70
2018-05-02T13:32:06.665Z,49.00
2018-05-02T13:34:34.255Z,49.50
2018-05-02T13:37:02.620Z,49.00
2018-05-02T13:39:30.339Z,49.00
2018-05-02T13:41:57.921Z,48.80
2018-05-02T13:44:25.557Z,49.50
2018-05-02T13:46:53.118Z,49.70
2018-05-02T13:49:20.782Z,50.00
2018-05-02T13:51:48.341Z,50.20
2018-05-02T13:54:15.935Z,50.40
2018-05-02T13:56:43.502Z,50.20
2018-05-02T13:59:11.913Z,50.10
2018-05-02T14:01:39.478Z,50.10
2018-05-02T14:04:07.218Z,51.90
2018-05-02T14:06:34.791Z,51.00
2018-05-02T14:09:02.478Z,48.90
2018-05-02T14:11:30.040Z,49.50
2018-05-02T14:13:57.626Z,49.00
2018-05-02T14:16:25.213Z,48.60
2018-05-02T14:18:52.793Z,51.00
2018-05-02T14:21:20.453Z,48.60
2018-05-02T14:23:48.018Z,48.80
2018-05-02T14:26:15.622Z,48.80
2018-05-02T14:28:43.195Z,48.90
2018-05-02T14:31:11.527Z,48.80
2018-05-02T14:33:39.118Z,48.60
2018-05-02T14:36:07.752Z,49.20
2018-05-02T14:38:35.404Z,48.80
2018-05-02T14:41:03.029Z,47.70
2018-05-02T14:43:31.601Z,48.80
2018-05-02T14:45:59.981Z,48.60
2018-05-02T14:48:28.456Z,48.20
2018-05-02T14:50:56.038Z,48.20
2018-05-02T14:53:23.818Z,47.50
2018-05-02T14:55:51.377Z,48.50
2018-05-02T14:58:18.977Z,48.70
2018-05-02T15:00:46.565Z,48.80
2018-05-02T15:03:14.933Z,50.20
2018-05-02T15:05:42.573Z,50.20
2018-05-02T15:08:10.227Z,48.30
2018-05-02T15:10:37.749Z,49.60
2018-05-02T15:13:05.410Z,48.90
2018-05-02T15:15:33.102Z,48.60
2018-05-02T15:18:00.703Z,48.40
2018-05-02T15:20:29.044Z,48.50
2018-05-02T15:22:56.629Z,48.50
2018-05-02T15:25:24.265Z,48.50
2018-05-02T15:27:53.473Z,49.80
2018-05-02T15:30:21.144Z,49.80
2018-05-02T15:32:49.497Z,49.40
2018-05-02T15:35:17.065Z,49.40
2018-05-02T15:37:44.662Z,50.60
2018-05-02T15:40:12.266Z,50.00
2018-05-02T15:42:40.097Z,50.20
2018-05-02T15:45:07.667Z,50.20
2018-05-02T15:47:35.243Z,50.60
2018-05-02T15:50:02.850Z,51.10
2018-05-02T15:52:31.290Z,50.70
2018-05-02T15:54:59.053Z,50.80
2018-05-02T15:57:26.678Z,50.40
2018-05-02T15:59:54.293Z,51.50
2018-05-02T16:02:21.937Z,50.90
2018-05-02T16:04:49.532Z,51.50
2018-05-02T16:07:17.880Z,51.40
2018-05-02T16:09:45.491Z,51.40
2018-05-02T16:12:13.054Z,51.80
2018-05-02T16:14:40.640Z,52.40
2018-05-02T16:17:08.225Z,51.60
2018-05-02T16:19:35.808Z,52.00
2018-05-02T16:22:04.161Z,52.70
2018-05-02T16:24:32.490Z,53.10
2018-05-02T16:27:00.144Z,53.10
2018-05-02T16:29:27.710Z,53.30
2018-05-02T16:31:55.299Z,53.00
2018-05-02T16:34:22.865Z,52.40
2018-05-02T16:36:50.474Z,52.90
2018-05-02T16:39:18.048Z,52.60
2018-05-02T16:41:45.694Z,53.60
2018-05-02T16:44:13.257Z,53.50
2018-05-02T16:46:40.873Z,53.30
2018-05-02T16:49:08.470Z,54.60
2018-05-02T16:51:36.024Z,53.90
2018-05-02T16:54:03.717Z,54.30
2018-05-02T16:56:31.457Z,55.60
2018-05-02T16:58:59.149Z,54.30
2018-05-02T17:01:26.706Z,53.70
2018-05-02T17:03:54.293Z,53.50
2018-05-02T17:06:21.857Z,53.50
2018-05-02T17:08:50.231Z,54.20
2018-05-02T17:11:18.719Z,55.10
2018-05-02T17:13:46.294Z,55.10
2018-05-02T17:16:13.868Z,55.80
2018-05-02T17:18:41.425Z,54.50
2018-05-02T17:21:09.013Z,55.80
2018-05-02T17:23:36.574Z,54.70
2018-05-02T17:26:04.154Z,54.60
2018-05-02T17:28:31.711Z,55.30
2018-05-02T17:30:59.357Z,54.70
2018-05-02T17:33:27.097Z,54.70
2018-05-02T17:35:54.698Z,54.30
2018-05-02T17:38:23.077Z,55.00
2018-05-02T17:40:51.472Z,54.90
2018-05-02T17:43:19.024Z,54.50
2018-05-02T17:45:47.417Z,55.90
2018-05-02T17:48:14.978Z,55.80
2018-05-02T17:50:42.545Z,57.00
2018-05-02T17:53:10.125Z,57.10
2018-05-02T17:55:37.704Z,56.00
2018-05-02T17:58:05.422Z,55.70
2018-05-02T18:00:32.981Z,56.60
2018-05-02T18:03:00.593Z,57.20
2018-05-02T18:05:28.175Z,58.00
2018-05-02T18:07:56.582Z,58.70
2018-05-02T18:10:24.185Z,58.70
2018-05-02T18:12:51.857Z,57.20
2018-05-02T18:15:19.456Z,58.60
2018-05-02T18:17:47.117Z,58.50
2018-05-02T18:20:14.678Z,60.00
2018-05-02T18:22:44.070Z,60.00
2018-05-02T18:25:12.477Z,59.50
2018-05-02T18:27:40.199Z,59.30
2018-05-02T18:30:07.788Z,60.80
2018-05-02T18:32:35.442Z,60.40
2018-05-02T18:35:03.045Z,63.10
2018-05-02T18:37:30.633Z,63.10
2018-05-02T18:39:58.977Z,63.60
2018-05-02T18:42:26.558Z,63.60
2018-05-02T18:44:54.116Z,59.90
2018-05-02T18:47:22.602Z,58.20
2018-05-02T18:49:51.107Z,58.10
2018-05-02T18:52:18.715Z,58.00
2018-05-02T18:54:47.250Z,58.00
2018-05-02T18:57:14.953Z,58.00
2018-05-02T18:59:42.670Z,57.70
2018-05-02T19:02:10.260Z,58.10
2018-05-02T19:04:37.841Z,57.90
2018-05-02T19:07:05.510Z,57.70
2018-05-02T19:09:33.861Z,57.80
2018-05-02T19:12:01.446Z,57.70
2018-05-02T19:14:29.021Z,58.00
2018-05-02T19:16:57.395Z,58.00
2018-05-02T19:19:31.306Z,58.70
2018-05-02T19:21:59.702Z,58.00
2018-05-02T19:24:32.730Z,58.00
2018-05-02T19:27:00.353Z,58.40
2018-05-02T19:29:27.964Z,58.40
2018-05-02T19:32:01.912Z,58.40
2018-05-02T19:34:29.489Z,58.40
2018-05-02T19:36:57.090Z,58.90
2018-05-02T19:39:24.698Z,58.80
2018-05-02T19:41:57.917Z,60.10
2018-05-02T19:44:25.551Z,59.10
2018-05-02T19:46:53.077Z,58.80
2018-05-02T19:49:21.446Z,59.10
2018-05-02T19:51:55.457Z,58.90
2018-05-02T19:54:23.990Z,59.20
2018-05-02T19:56:51.652Z,59.10
2018-05-02T19:59:19.306Z,59.30
2018-05-02T20:01:52.618Z,59.10
2018-05-02T20:04:20.311Z,58.80
2018-05-02T20:06:48.724Z,59.10
2018-05-02T20:09:21.893Z,59.10
2018-05-02T20:11:55.788Z,60.20
2018-05-02T20:14:24.321Z,58.90
2018-05-02T20:16:52.013Z,58.90
2018-05-02T20:19:19.597Z,58.80
2018-05-02T20:21:47.993Z,59.30
2018-05-02T20:24:15.602Z,59.70
2018-05-02T20:26:43.265Z,58.70
2018-05-02T20:29:10.867Z,59.10
2018-05-02T20:31:38.446Z,59.00
2018-05-02T20:34:06.100Z,59.50
2018-05-02T20:36:33.761Z,59.60
2018-05-02T20:39:01.338Z,59.00
2018-05-02T20:41:28.976Z,58.70
2018-05-02T20:43:56.629Z,58.90
2018-05-02T20:46:24.203Z,59.70
2018-05-02T20:48:51.771Z,59.50
2018-05-02T20:51:19.389Z,59.90
2018-05-02T20:53:47.737Z,59.10
2018-05-02T20:56:15.400Z,59.10
2018-05-02T20:58:42.965Z,59.00
2018-05-02T21:01:10.573Z,59.70
2018-05-02T21:03:38.173Z,58.80
2018-05-02T21:06:05.787Z,59.40
2018-05-02T21:08:33.516Z,59.20
2018-05-02T21:11:01.882Z,59.00
2018-05-02T21:13:29.474Z,59.00
2018-05-02T21:15:57.079Z,59.10
2018-05-02T21:18:24.653Z,59.40
2018-05-02T21:20:52.249Z,58.70
2018-05-02T21:23:19.836Z,58.50
2018-05-02T21:25:47.455Z,59.00
2018-05-02T21:28:15.066Z,59.70
2018-05-02T21:30:42.676Z,59.60
2018-05-02T21:33:11.017Z,59.60
2018-05-02T21:35:38.641Z,59.60
2018-05-02T21:38:06.193Z,58.50
2018-05-02T21:40:33.957Z,58.50
2018-05-02T21:43:01.610Z,59.10
2018-05-02T21:45:29.190Z,59.30
2018-05-02T21:47:56.768Z,59.00
2018-05-02T21:50:24.392Z,59.50
2018-05-02T21:52:52.052Z,59.70
2018-05-02T21:55:19.773Z,59.40
2018-05-02T21:57:47.357Z,59.20
2018-05-02T22:00:15.032Z,59.10
2018-05-02T22:02:42.621Z,58.70
2018-05-02T22:05:10.209Z,59.00
2018-05-02T22:07:37.772Z,58.50
2018-05-02T22:10:06.095Z,59.20
2018-05-02T22:12:33.744Z,59.20
2018-05-02T22:15:01.293Z,58.30
2018-05-02T22:17:28.879Z,58.30
2018-05-02T22:19:56.472Z,57.70
2018-05-02T22:22:24.820Z,57.90
2018-05-02T22:24:52.409Z,57.80
2018-05-02T22:27:19.970Z,57.60
2018-05-02T22:29:47.557Z,58.70
2018-05-02T22:32:15.231Z,58.40
2018-05-02T22:34:42.800Z,60.40
2018-05-02T22:37:10.383Z,58.30
2018-05-02T22:39:37.954Z,59.50
2018-05-02T22:42:06.447Z,59.00
2018-05-02T22:44:34.046Z,59.00
2018-05-02T22:47:01.709Z,58.90
2018-05-02T22:49:29.368Z,59.40
2018-05-02T22:51:57.028Z,59.50
2018-05-02T22:54:24.623Z,59.50
2018-05-02T22:56:52.188Z,58.90
2018-05-02T22:59:19.766Z,59.10
2018-05-02T23:01:48.069Z,60.00
2018-05-02T23:04:15.655Z,59.90
2018-05-02T23:06:43.234Z,60.00
2018-05-02T23:09:10.836Z,60.40
2018-05-02T23:11:39.277Z,59.90
2018-05-02T23:14:06.837Z,60.00
2018-05-02T23:16:35.329Z,60.30
2018-05-02T23:19:02.925Z,60.10
2018-05-02T23:21:30.601Z,60.70
2018-05-02T23:23:58.357Z,60.00
2018-05-02T23:26:25.948Z,60.00
2018-05-02T23:28:53.536Z,61.40
2018-05-02T23:31:21.127Z,59.90
2018-05-02T23:33:48.721Z,60.40
2018-05-02T23:36:16.321Z,59.90
2018-05-02T23:38:44.642Z,62.60
2018-05-02T23:41:12.299Z,61.80
2018-05-02T23:43:39.928Z,61.90
2018-05-02T23:46:08.540Z,61.10
2018-05-02T23:48:36.105Z,61.10
2018-05-02T23:51:03.753Z,61.30
2018-05-02T23:53:31.305Z,60.80
2018-05-02T23:55:58.901Z,60.70
2018-05-02T23:58:26.473Z,61.30
